Skip Navigation LinksHome page > Weather > Current weather Skip Navigation Links

Current Weather

Miami Intl, Miami

For information only: do not use for flight planning or navigation.
Latest weather
Observation time Thursday, November 21, 2019 1:53 PM EST
Local time Thursday, November 21, 2019 3:01 PM EST
Flight conditions Visual Meteorological Conditions
Winds
Wind direction East (90°)
Wind speed 14 mph
Visibility 10 mi.
Sky condition
Ceiling 5,000 ft. broken clouds
Cloud layer broken clouds 5,000 ft.
Temperature 78°F
Dewpoint 54°F
Altimeter 30.11 in.Hg
Derived measurements
Relative humidity 43%
Heat index 78°F
Density altitude 1220 ft.
Sea-level pressure 30.11 in.Hg
Remarks
System requires maintenance.
Automated weather observing station with precipitation discriminator.
METAR KMIA 211853Z 09012KT 10SM BKN050 26/12 A3011 RMK AO2 SLP196 T02560122 $

Settings

Location code

InnerDrive.Weather 4.0.6770.0 Release CLR 4.0.30319.42000
Copyright ©2018 Inner Drive Technology. All rights reserved. Portions Copyright ©1986-2018 David Braverman.

Find weather

Site navigation


Skip Navigation Links

Place info

Page info

PayPal - The safer, easier way to pay online!

Return home.

Copyright ©2019 Inner Drive Technology. Purveyors of fine, hand-crafted computer software. Page printed 2019-11-21T20:01:22 UTC.